Time;durP1;ratioP1;P1;durP2;ratioP2;P2;SDS_P1;SDS_P2;PMS_P1;PMS_P2;Temp;Humidity;BMP_temperature;BMP_pressure;BME280_temperature;BME280_humidity;BME280_pressure;Samples;Min_cycle;Max_cycle;Signal;HPM_P1;HPM_P2
2023/01/09 00:00:34;;;;;;;4.53;4.05;;;;;;;;;;4909059;29;20059;-79
2023/01/09 00:03:01;;;;;;;4.80;4.13;;;;;;;;;;4939897;28;20051;-80
2023/01/09 00:05:28;;;;;;;5.43;4.25;;;;;;;;;;4944653;29;20455;-78
2023/01/09 00:07:55;;;;;;;3.97;3.50;;;;;;;;;;4937164;29;20448;-78
2023/01/09 00:10:21;;;;;;;5.55;3.53;;;;;;;;;;4955044;28;20129;-79
2023/01/09 00:12:48;;;;;;;4.60;3.45;;;;;;;;;;4940435;28;20143;-79
2023/01/09 00:15:15;;;;;;;5.18;3.50;;;;;;;;;;4940860;28;20054;-79
2023/01/09 00:17:42;;;;;;;3.85;3.05;;;;;;;;;;4974288;28;20055;-79
2023/01/09 00:20:09;;;;;;;3.33;3.00;;;;;;;;;;4941253;28;20054;-80
2023/01/09 00:22:36;;;;;;;4.43;3.05;;;;;;;;;;4942320;28;20113;-79
2023/01/09 00:25:04;;;;;;;4.15;3.75;;;;;;;;;;4961847;28;20062;-79
2023/01/09 00:27:32;;;;;;;3.70;3.33;;;;;;;;;;4947669;28;20074;-81
2023/01/09 00:29:59;;;;;;;4.45;3.95;;;;;;;;;;4972145;28;20411;-79
2023/01/09 00:32:26;;;;;;;5.43;4.13;;;;;;;;;;4959219;28;20060;-79
2023/01/09 00:34:54;;;;;;;4.43;3.92;;;;;;;;;;4949947;28;20054;-80
2023/01/09 00:37:21;;;;;;;4.15;3.50;;;;;;;;;;4936770;28;20054;-80
2023/01/09 00:39:47;;;;;;;4.47;4.03;;;;;;;;;;4947553;28;20438;-78
2023/01/09 00:42:20;;;;;;;4.85;4.00;;;;;;;;;;4947683;28;20062;-79
2023/01/09 00:44:49;;;;;;;5.17;3.77;;;;;;;;;;4950357;28;20061;-79
2023/01/09 00:47:24;;;;;;;4.82;3.40;;;;;;;;;;4967792;28;20146;-79
2023/01/09 00:50:06;;;;;;;;;;;;;;;;;;;;;
2023/01/09 01:00:47;;;;;;;4.32;3.78;;;;;;;;;;4848133;29;20472;-80
2023/01/09 01:10:07;;;;;;;4.22;3.67;;;;;;;;;;4929330;28;20545;-80
2023/01/09 01:44:18;;;;;;;;;;;;;;;;;;;;;
2023/01/09 01:47:46;;;;;;;;;;;;;;;;;;;;;
2023/01/09 01:51:01;;;;;;;0.98;0.80;;;;;;;;;;4961044;28;20058;-81
2023/01/09 01:54:05;;;;;;;0.50;0.50;;;;;;;;;;4987385;28;20049;-80
2023/01/09 01:56:37;;;;;;;0.75;0.68;;;;;;;;;;4943761;28;20078;-81
2023/01/09 01:59:11;;;;;;;0.85;0.70;;;;;;;;;;4931029;28;20065;-80
2023/01/09 02:01:40;;;;;;;0.50;0.50;;;;;;;;;;4930809;28;20054;-80
2023/01/09 02:04:46;;;;;;;;;;;;;;;;;;;;;
2023/01/09 02:07:41;;;;;;;0.40;0.40;;;;;;;;;;4978364;28;20056;-79
2023/01/09 02:10:28;;;;;;;0.45;0.43;;;;;;;;;;4953393;28;20743;-79
2023/01/09 02:17:34;;;;;;;0.30;0.28;;;;;;;;;;4993936;28;20061;-81
2023/01/09 02:20:42;;;;;;;0.40;0.40;;;;;;;;;;4924375;29;20063;-80
2023/01/09 02:23:15;;;;;;;0.40;0.40;;;;;;;;;;4914590;28;20056;-80
2023/01/09 02:25:54;;;;;;;1.13;0.32;;;;;;;;;;4963844;28;20058;-80
2023/01/09 02:28:32;;;;;;;0.65;0.40;;;;;;;;;;4979326;28;20121;-80
2023/01/09 02:31:16;;;;;;;0.40;0.30;;;;;;;;;;4952077;28;20061;-80
2023/01/09 02:34:01;;;;;;;0.52;0.30;;;;;;;;;;4981882;28;20120;-80
2023/01/09 02:36:51;;;;;;;0.30;0.30;;;;;;;;;;4965436;28;20065;-80
2023/01/09 02:39:32;;;;;;;0.30;0.30;;;;;;;;;;4966668;28;20418;-82
2023/01/09 02:42:09;;;;;;;0.47;0.45;;;;;;;;;;4965764;28;20419;-82
2023/01/09 02:44:36;;;;;;;0.60;0.55;;;;;;;;;;4981132;28;20050;-82
2023/01/09 02:47:06;;;;;;;1.00;0.45;;;;;;;;;;4964501;28;20050;-82
2023/01/09 02:49:34;;;;;;;0.20;0.20;;;;;;;;;;4962798;28;20470;-82
2023/01/09 02:52:21;;;;;;;0.40;0.40;;;;;;;;;;4963231;28;20431;-82
2023/01/09 02:55:08;;;;;;;1.35;0.40;;;;;;;;;;4960989;28;20050;-82
2023/01/09 02:58:03;;;;;;;0.30;0.30;;;;;;;;;;4947837;28;20458;-81
2023/01/09 03:00:53;;;;;;;0.30;0.30;;;;;;;;;;4951358;28;20133;-81
2023/01/09 03:03:24;;;;;;;0.30;0.20;;;;;;;;;;4950598;28;20442;-81
2023/01/09 03:05:56;;;;;;;0.22;0.22;;;;;;;;;;4948861;28;20055;-81
2023/01/09 03:08:25;;;;;;;0.45;0.20;;;;;;;;;;4966459;28;20050;-79
2023/01/09 03:11:01;;;;;;;0.20;0.20;;;;;;;;;;4966851;28;20066;-81
2023/01/09 03:13:52;;;;;;;0.20;0.20;;;;;;;;;;4951299;28;20058;-83
2023/01/09 03:16:31;;;;;;;0.25;0.15;;;;;;;;;;4968366;28;20065;-83
2023/01/09 03:18:57;;;;;;;0.00;0.00;;;;;;;;;;4965948;28;20076;-83
2023/01/09 03:21:24;;;;;;;0.30;0.20;;;;;;;;;;4950278;28;20100;-83
2023/01/09 03:23:54;;;;;;;0.30;0.20;;;;;;;;;;4964938;28;20050;-83
2023/01/09 03:26:22;;;;;;;0.10;0.10;;;;;;;;;;4947521;28;20069;-83
2023/01/09 03:28:49;;;;;;;0.20;0.20;;;;;;;;;;4947407;28;20058;-82
2023/01/09 03:31:16;;;;;;;0.20;0.20;;;;;;;;;;4957786;28;20073;-83
2023/01/09 03:33:43;;;;;;;0.10;0.10;;;;;;;;;;4940915;28;20054;-80
2023/01/09 03:36:11;;;;;;;0.40;0.30;;;;;;;;;;4941046;28;20503;-81
2023/01/09 03:38:37;;;;;;;0.10;0.10;;;;;;;;;;4925705;28;20054;-80
2023/01/09 03:41:04;;;;;;;0.63;0.40;;;;;;;;;;4957605;28;20061;-81
2023/01/09 03:43:31;;;;;;;1.33;0.20;;;;;;;;;;4933281;28;20055;-80
2023/01/09 03:45:58;;;;;;;0.20;0.20;;;;;;;;;;4925953;28;20163;-79
2023/01/09 03:48:25;;;;;;;0.10;0.10;;;;;;;;;;4942146;28;20103;-80
2023/01/09 03:50:52;;;;;;;0.10;0.10;;;;;;;;;;4974176;28;20109;-79
2023/01/09 03:53:20;;;;;;;0.20;0.20;;;;;;;;;;4942692;28;20059;-80
2023/01/09 03:55:49;;;;;;;0.22;0.10;;;;;;;;;;4955404;28;20081;-79
2023/01/09 03:58:16;;;;;;;0.70;0.20;;;;;;;;;;4995550;28;20054;-79
2023/01/09 04:00:44;;;;;;;0.10;0.10;;;;;;;;;;4962032;28;20419;-79
2023/01/09 04:03:12;;;;;;;0.10;0.10;;;;;;;;;;4949588;28;20070;-81
2023/01/09 04:05:39;;;;;;;0.10;0.10;;;;;;;;;;4962287;28;20108;-81
2023/01/09 04:08:06;;;;;;;0.52;0.52;;;;;;;;;;4977900;28;20061;-80
2023/01/09 04:10:32;;;;;;;0.10;0.10;;;;;;;;;;4962422;28;20050;-81
2023/01/09 04:12:59;;;;;;;0.00;0.00;;;;;;;;;;4979183;28;20061;-80
2023/01/09 04:15:26;;;;;;;0.15;0.10;;;;;;;;;;4963967;28;20054;-80
2023/01/09 04:17:53;;;;;;;0.10;0.10;;;;;;;;;;4949342;28;20050;-81
2023/01/09 04:20:19;;;;;;;0.32;0.10;;;;;;;;;;4965443;28;20577;-81
2023/01/09 04:22:46;;;;;;;1.45;0.10;;;;;;;;;;4964948;28;20427;-80
2023/01/09 04:25:13;;;;;;;0.10;0.00;;;;;;;;;;4953249;28;20054;-81
2023/01/09 04:27:40;;;;;;;0.98;0.10;;;;;;;;;;5013422;28;20055;-81
2023/01/09 04:30:07;;;;;;;0.10;0.00;;;;;;;;;;4965874;28;20054;-81
2023/01/09 04:32:34;;;;;;;0.20;0.00;;;;;;;;;;4946187;28;20051;-81
2023/01/09 04:35:00;;;;;;;0.00;0.00;;;;;;;;;;4952950;28;20058;-81
2023/01/09 04:37:27;;;;;;;0.00;0.00;;;;;;;;;;4945207;28;20463;-80
2023/01/09 04:39:54;;;;;;;0.00;0.00;;;;;;;;;;4958155;28;20055;-81
2023/01/09 04:42:22;;;;;;;1.00;0.10;;;;;;;;;;4945568;28;20086;-81
2023/01/09 04:44:52;;;;;;;0.22;0.10;;;;;;;;;;4975786;28;20054;-81
2023/01/09 04:47:20;;;;;;;1.10;0.10;;;;;;;;;;4948488;28;20375;-81
2023/01/09 04:49:46;;;;;;;0.10;0.10;;;;;;;;;;4948672;28;20061;-82
2023/01/09 04:52:13;;;;;;;0.30;0.10;;;;;;;;;;4962581;28;20062;-81
2023/01/09 04:54:40;;;;;;;0.10;0.10;;;;;;;;;;4961291;28;20050;-83
2023/01/09 04:57:07;;;;;;;0.10;0.10;;;;;;;;;;4950713;28;20061;-82
2023/01/09 04:59:34;;;;;;;0.13;0.10;;;;;;;;;;4976911;28;20086;-82
2023/01/09 05:02:01;;;;;;;0.10;0.10;;;;;;;;;;4935387;28;20047;-82
2023/01/09 05:04:29;;;;;;;0.35;0.20;;;;;;;;;;4965482;28;20054;-83
2023/01/09 05:06:56;;;;;;;0.10;0.10;;;;;;;;;;4974117;28;20054;-81
2023/01/09 05:09:22;;;;;;;0.20;0.20;;;;;;;;;;4981321;28;20050;-81
2023/01/09 05:11:49;;;;;;;1.77;0.10;;;;;;;;;;4981340;28;20069;-81
2023/01/09 05:14:16;;;;;;;0.20;0.10;;;;;;;;;;4982414;28;20062;-81
2023/01/09 05:16:43;;;;;;;1.42;0.20;;;;;;;;;;4982951;28;20061;-81
2023/01/09 05:19:10;;;;;;;0.10;0.10;;;;;;;;;;4966781;28;20062;-82
2023/01/09 05:21:37;;;;;;;0.75;0.20;;;;;;;;;;4949872;28;20097;-81
2023/01/09 05:24:04;;;;;;;1.08;0.20;;;;;;;;;;4965839;28;20478;-82
2023/01/09 05:26:31;;;;;;;0.68;0.20;;;;;;;;;;4965787;28;20399;-81
2023/01/09 05:28:57;;;;;;;0.68;0.20;;;;;;;;;;4981343;28;20058;-81
2023/01/09 05:31:25;;;;;;;2.15;0.40;;;;;;;;;;4981198;28;20478;-81
2023/01/09 05:33:52;;;;;;;3.45;0.40;;;;;;;;;;4964971;28;20069;-81
2023/01/09 05:36:19;;;;;;;2.45;0.40;;;;;;;;;;4980913;28;20422;-81
2023/01/09 05:38:46;;;;;;;1.85;0.40;;;;;;;;;;4965013;28;20511;-81
2023/01/09 05:41:12;;;;;;;0.60;0.40;;;;;;;;;;4965954;28;20482;-82
2023/01/09 05:43:39;;;;;;;1.98;0.73;;;;;;;;;;4980984;28;20161;-80
2023/01/09 05:46:06;;;;;;;0.50;0.30;;;;;;;;;;4963858;28;20054;-80
2023/01/09 05:48:33;;;;;;;1.40;0.25;;;;;;;;;;4964003;28;20093;-80
2023/01/09 05:51:00;;;;;;;1.75;0.40;;;;;;;;;;4964788;28;20089;-81
2023/01/09 05:53:26;;;;;;;1.50;0.60;;;;;;;;;;4982342;28;20061;-82
2023/01/09 05:55:54;;;;;;;1.17;0.45;;;;;;;;;;4981660;28;20057;-83
2023/01/09 05:58:21;;;;;;;1.60;0.60;;;;;;;;;;4981216;28;20503;-82
2023/01/09 06:00:48;;;;;;;1.42;0.52;;;;;;;;;;4966269;28;20089;-83
2023/01/09 06:03:15;;;;;;;1.95;0.50;;;;;;;;;;4982076;28;20061;-81
2023/01/09 06:05:41;;;;;;;2.50;0.30;;;;;;;;;;4964176;28;20396;-81
2023/01/09 06:08:08;;;;;;;1.70;0.40;;;;;;;;;;4979527;28;20051;-81
2023/01/09 06:10:35;;;;;;;0.93;0.40;;;;;;;;;;4951192;28;20084;-81
2023/01/09 06:13:01;;;;;;;1.30;0.40;;;;;;;;;;4980691;28;20053;-80
2023/01/09 06:15:30;;;;;;;1.00;0.40;;;;;;;;;;4969684;28;20419;-79
2023/01/09 06:17:57;;;;;;;0.77;0.70;;;;;;;;;;4991638;28;20569;-79
2023/01/09 06:20:24;;;;;;;2.08;0.75;;;;;;;;;;4960973;28;20054;-80
2023/01/09 06:22:52;;;;;;;1.45;0.25;;;;;;;;;;4990183;28;20128;-79
2023/01/09 06:25:18;;;;;;;1.95;0.38;;;;;;;;;;4994599;28;20057;-79
2023/01/09 06:27:45;;;;;;;0.50;0.30;;;;;;;;;;4992973;28;20049;-79
2023/01/09 06:30:12;;;;;;;2.90;0.60;;;;;;;;;;4999275;28;20113;-80
2023/01/09 06:32:39;;;;;;;1.15;0.40;;;;;;;;;;5006090;28;20061;-80
2023/01/09 06:35:05;;;;;;;0.93;0.50;;;;;;;;;;4965875;28;20050;-80
2023/01/09 06:37:32;;;;;;;1.13;1.02;;;;;;;;;;4974299;28;20070;-80
2023/01/09 06:39:59;;;;;;;0.75;0.40;;;;;;;;;;4974972;28;20047;-80
2023/01/09 06:42:26;;;;;;;1.35;0.60;;;;;;;;;;4974407;28;20066;-79
2023/01/09 06:44:52;;;;;;;1.77;1.00;;;;;;;;;;4973063;28;20061;-81
2023/01/09 06:47:19;;;;;;;1.42;0.50;;;;;;;;;;4972125;28;20051;-80
2023/01/09 06:49:46;;;;;;;1.60;0.40;;;;;;;;;;4988278;28;20073;-81
2023/01/09 06:52:13;;;;;;;3.00;0.40;;;;;;;;;;4997909;28;20506;-81
2023/01/09 06:54:39;;;;;;;3.08;0.50;;;;;;;;;;4988635;28;20486;-81
2023/01/09 06:57:06;;;;;;;2.22;0.50;;;;;;;;;;4977441;28;20495;-81
2023/01/09 06:59:33;;;;;;;2.50;0.60;;;;;;;;;;4975144;28;20062;-81
2023/01/09 07:01:59;;;;;;;1.58;0.40;;;;;;;;;;4952878;28;20055;-81
2023/01/09 07:04:27;;;;;;;1.13;0.60;;;;;;;;;;4975683;28;20054;-81
2023/01/09 07:06:53;;;;;;;1.65;0.50;;;;;;;;;;4978857;28;20050;-82
2023/01/09 07:09:20;;;;;;;4.47;0.82;;;;;;;;;;4978676;28;20062;-81
2023/01/09 07:11:47;;;;;;;2.25;0.60;;;;;;;;;;4977316;28;20054;-80
2023/01/09 07:14:14;;;;;;;2.75;0.60;;;;;;;;;;4977121;28;20427;-81
2023/01/09 07:16:40;;;;;;;0.90;0.40;;;;;;;;;;4957748;28;20043;-81
2023/01/09 07:19:07;;;;;;;1.98;0.60;;;;;;;;;;4965497;28;20050;-81
2023/01/09 07:21:34;;;;;;;4.13;1.30;;;;;;;;;;4958150;28;20404;-79
2023/01/09 07:24:01;;;;;;;1.13;0.52;;;;;;;;;;4974089;28;20054;-79
2023/01/09 07:26:27;;;;;;;3.53;0.80;;;;;;;;;;4979335;28;20137;-84
2023/01/09 07:28:54;;;;;;;1.30;0.50;;;;;;;;;;5010514;28;20054;-82
2023/01/09 07:31:21;;;;;;;0.75;0.50;;;;;;;;;;4971996;28;20100;-84
2023/01/09 07:33:48;;;;;;;3.95;0.68;;;;;;;;;;4983715;28;20069;-82
2023/01/09 07:36:14;;;;;;;4.72;0.77;;;;;;;;;;4950803;28;20054;-78
2023/01/09 07:38:41;;;;;;;1.95;0.90;;;;;;;;;;4962115;28;20057;-78
2023/01/09 07:41:08;;;;;;;2.53;1.17;;;;;;;;;;4962911;28;20061;-79
2023/01/09 07:43:36;;;;;;;3.17;1.08;;;;;;;;;;4951879;28;20065;-78
2023/01/09 07:46:02;;;;;;;4.70;1.55;;;;;;;;;;4960081;28;20047;-77
2023/01/09 07:48:29;;;;;;;1.83;1.15;;;;;;;;;;4975054;28;20441;-76
2023/01/09 07:51:05;;;;;;;2.00;0.80;;;;;;;;;;4978230;28;20050;-76
2023/01/09 07:53:32;;;;;;;2.75;0.70;;;;;;;;;;5010468;28;20049;-76
2023/01/09 07:55:59;;;;;;;3.17;0.70;;;;;;;;;;4983897;28;20082;-78
2023/01/09 07:58:26;;;;;;;2.08;0.90;;;;;;;;;;4955999;28;20067;-78
2023/01/09 08:00:52;;;;;;;3.33;0.70;;;;;;;;;;4959343;28;20050;-78
2023/01/09 08:03:19;;;;;;;3.15;1.00;;;;;;;;;;4943377;28;20452;-78
2023/01/09 08:05:46;;;;;;;3.58;0.82;;;;;;;;;;4975589;28;20415;-78
2023/01/09 08:08:15;;;;;;;2.38;0.70;;;;;;;;;;4992902;28;20070;-78
2023/01/09 08:10:43;;;;;;;4.28;0.70;;;;;;;;;;4975356;28;20057;-78
2023/01/09 08:13:09;;;;;;;1.73;0.65;;;;;;;;;;4975350;28;20062;-79
2023/01/09 08:15:36;;;;;;;3.08;0.77;;;;;;;;;;4979725;28;20050;-78
2023/01/09 08:18:03;;;;;;;2.65;0.60;;;;;;;;;;4962697;28;20065;-79
2023/01/09 08:20:31;;;;;;;6.18;1.45;;;;;;;;;;4976267;28;20073;-79
2023/01/09 08:22:57;;;;;;;4.05;1.27;;;;;;;;;;4963024;28;20050;-80
2023/01/09 08:25:24;;;;;;;5.97;1.35;;;;;;;;;;4994665;28;20054;-79
2023/01/09 08:27:51;;;;;;;2.40;1.20;;;;;;;;;;4943836;28;20057;-75
2023/01/09 08:30:18;;;;;;;4.95;1.25;;;;;;;;;;4958145;28;20062;-72
2023/01/09 08:32:52;;;;;;;1.15;0.40;;;;;;;;;;4992427;28;20092;-76
2023/01/09 08:35:19;;;;;;;4.75;1.10;;;;;;;;;;4959057;28;20061;-75
2023/01/09 08:37:46;;;;;;;3.22;0.57;;;;;;;;;;4958653;28;20058;-77
2023/01/09 08:40:14;;;;;;;3.05;0.60;;;;;;;;;;4959851;28;20058;-79
2023/01/09 08:48:11;;;;;;;1.55;0.55;;;;;;;;;;4996057;28;20462;-80
2023/01/09 08:50:38;;;;;;;2.58;0.80;;;;;;;;;;4947080;28;20141;-75
2023/01/09 08:53:05;;;;;;;6.20;1.63;;;;;;;;;;4959016;28;20433;-82
2023/01/09 08:55:32;;;;;;;1.42;0.47;;;;;;;;;;4945680;28;20050;-74
2023/01/09 08:57:59;;;;;;;2.33;0.47;;;;;;;;;;4986195;28;20049;-76
2023/01/09 09:00:26;;;;;;;2.58;0.40;;;;;;;;;;4981461;28;20087;-78
2023/01/09 09:03:03;;;;;;;1.80;0.50;;;;;;;;;;4979509;28;20543;-76
2023/01/09 09:05:30;;;;;;;0.90;0.32;;;;;;;;;;4961160;28;20421;-75
2023/01/09 09:07:57;;;;;;;2.55;0.68;;;;;;;;;;4976809;28;20145;-75
2023/01/09 09:10:26;;;;;;;1.88;0.70;;;;;;;;;;4960669;28;20058;-77
2023/01/09 09:12:54;;;;;;;2.75;0.60;;;;;;;;;;4946940;28;20050;-81
2023/01/09 09:15:25;;;;;;;4.97;0.70;;;;;;;;;;4948396;28;20524;-77
2023/01/09 09:17:54;;;;;;;2.65;1.23;;;;;;;;;;4976705;28;20101;-77
2023/01/09 09:20:22;;;;;;;1.75;0.60;;;;;;;;;;4941236;28;20282;-77
2023/01/09 09:22:49;;;;;;;1.92;0.70;;;;;;;;;;4941806;28;20245;-78
2023/01/09 09:25:16;;;;;;;2.20;1.02;;;;;;;;;;4958847;28;20093;-78
2023/01/09 09:27:43;;;;;;;1.67;0.57;;;;;;;;;;4958927;28;20415;-79
2023/01/09 09:30:11;;;;;;;2.40;0.80;;;;;;;;;;4975655;28;20054;-82
2023/01/09 09:32:41;;;;;;;1.63;0.60;;;;;;;;;;4961306;28;20054;-82
2023/01/09 09:35:08;;;;;;;1.90;0.65;;;;;;;;;;4968893;28;20053;-82
2023/01/09 09:37:35;;;;;;;5.07;0.60;;;;;;;;;;5000394;28;20090;-77
2023/01/09 09:40:03;;;;;;;2.90;0.50;;;;;;;;;;4993430;28;20521;-77
2023/01/09 09:45:50;;;;;;;3.28;1.00;;;;;;;;;;4995001;28;20125;-78
2023/01/09 09:48:36;;;;;;;5.97;0.70;;;;;;;;;;4956573;28;20058;-78
2023/01/09 09:51:19;;;;;;;3.58;0.70;;;;;;;;;;4965756;28;20061;-79
2023/01/09 09:54:03;;;;;;;3.10;0.70;;;;;;;;;;4962435;28;20137;-77
2023/01/09 09:56:34;;;;;;;1.05;0.40;;;;;;;;;;4944238;28;20042;-77
2023/01/09 09:59:14;;;;;;;1.52;0.63;;;;;;;;;;4942824;28;20495;-77
2023/01/09 10:01:59;;;;;;;0.95;0.32;;;;;;;;;;4951378;28;20054;-77
2023/01/09 10:04:29;;;;;;;4.10;0.57;;;;;;;;;;4948564;28;20057;-77
2023/01/09 10:06:58;;;;;;;5.25;1.20;;;;;;;;;;4940500;28;20050;-77
2023/01/09 10:09:36;;;;;;;2.05;0.70;;;;;;;;;;4951432;28;20067;-78
2023/01/09 10:12:18;;;;;;;1.75;0.60;;;;;;;;;;4966001;28;20058;-77
2023/01/09 10:14:44;;;;;;;2.70;0.60;;;;;;;;;;4968323;28;20064;-78
2023/01/09 10:17:29;;;;;;;4.35;0.82;;;;;;;;;;4963237;28;20047;-78
2023/01/09 10:20:02;;;;;;;2.10;0.38;;;;;;;;;;4963351;28;20058;-78
2023/01/09 10:22:32;;;;;;;1.27;0.60;;;;;;;;;;4976931;28;20064;-78
2023/01/09 10:25:17;;;;;;;3.75;0.70;;;;;;;;;;4983354;28;20054;-79
2023/01/09 10:28:06;;;;;;;2.97;0.80;;;;;;;;;;4965996;28;20500;-77
2023/01/09 10:30:54;;;;;;;1.90;0.60;;;;;;;;;;4967345;28;20545;-78
2023/01/09 10:33:28;;;;;;;3.72;0.50;;;;;;;;;;4974095;28;20069;-79
2023/01/09 10:35:58;;;;;;;3.08;1.10;;;;;;;;;;4960831;28;20051;-80
2023/01/09 10:38:37;;;;;;;1.80;1.05;;;;;;;;;;4976417;28;20050;-80
2023/01/09 10:41:13;;;;;;;3.78;0.70;;;;;;;;;;4975786;28;20050;-81
2023/01/09 10:43:48;;;;;;;1.33;0.73;;;;;;;;;;4945116;28;20061;-78
2023/01/09 10:46:22;;;;;;;4.20;0.90;;;;;;;;;;4970679;28;20058;-79
2023/01/09 10:48:53;;;;;;;2.13;0.60;;;;;;;;;;4960268;28;20078;-77
2023/01/09 10:51:45;;;;;;;2.70;0.40;;;;;;;;;;4985495;28;20054;-82
2023/01/09 10:54:22;;;;;;;2.28;0.60;;;;;;;;;;4962783;28;20046;-83
2023/01/09 10:56:59;;;;;;;3.33;0.63;;;;;;;;;;4976427;28;20129;-84
2023/01/09 10:59:26;;;;;;;8.57;0.90;;;;;;;;;;4953051;28;20055;-83
2023/01/09 11:01:53;;;;;;;2.42;0.80;;;;;;;;;;4970747;28;20050;-82
2023/01/09 11:04:26;;;;;;;3.55;0.68;;;;;;;;;;4971602;28;20141;-83
2023/01/09 11:07:22;;;;;;;3.53;0.80;;;;;;;;;;4940162;28;20053;-84
2023/01/09 11:10:03;;;;;;;2.47;0.88;;;;;;;;;;4960389;28;20061;-83
2023/01/09 11:12:31;;;;;;;4.78;0.68;;;;;;;;;;4964827;28;20058;-83
2023/01/09 11:15:26;;;;;;;6.18;0.60;;;;;;;;;;4950292;28;20071;-83
2023/01/09 11:17:52;;;;;;;3.67;0.70;;;;;;;;;;4971623;28;20051;-83
2023/01/09 11:20:25;;;;;;;3.63;0.57;;;;;;;;;;4957923;28;20371;-83
2023/01/09 11:22:53;;;;;;;5.13;0.80;;;;;;;;;;4980697;28;20047;-82
2023/01/09 11:25:22;;;;;;;4.53;1.08;;;;;;;;;;4961738;28;20450;-83
2023/01/09 11:28:01;;;;;;;4.15;0.60;;;;;;;;;;4933306;28;20059;-83
2023/01/09 11:30:49;;;;;;;2.53;0.73;;;;;;;;;;4975278;28;20058;-83
2023/01/09 11:33:23;;;;;;;3.95;0.60;;;;;;;;;;4960354;28;20058;-83
2023/01/09 11:36:05;;;;;;;5.07;0.73;;;;;;;;;;4974543;28;20031;-83
2023/01/09 11:38:56;;;;;;;3.25;0.90;;;;;;;;;;4966200;28;20324;-80
2023/01/09 11:41:33;;;;;;;2.58;0.80;;;;;;;;;;4956536;28;20051;-83
2023/01/09 11:44:00;;;;;;;4.75;0.90;;;;;;;;;;4973347;28;20057;-84
2023/01/09 11:46:38;;;;;;;6.47;2.03;;;;;;;;;;4975445;28;20027;-82
2023/01/09 11:49:21;;;;;;;2.45;1.13;;;;;;;;;;4963303;28;20182;-82
2023/01/09 11:52:15;;;;;;;2.40;0.60;;;;;;;;;;4968311;28;20085;-82
2023/01/09 11:54:48;;;;;;;5.20;0.93;;;;;;;;;;4986875;28;20038;-81
2023/01/09 11:57:15;;;;;;;3.95;0.88;;;;;;;;;;4981981;28;20043;-81
2023/01/09 11:59:42;;;;;;;3.70;0.75;;;;;;;;;;4990071;28;20022;-81
2023/01/09 12:02:12;;;;;;;2.13;0.40;;;;;;;;;;4970616;28;20052;-81
2023/01/09 12:04:49;;;;;;;2.95;0.70;;;;;;;;;;4985408;28;20042;-77
2023/01/09 12:07:43;;;;;;;5.90;0.80;;;;;;;;;;4982726;28;20061;-78
2023/01/09 12:10:22;;;;;;;4.25;0.95;;;;;;;;;;4987896;28;20039;-81
2023/01/09 12:13:13;;;;;;;3.67;0.80;;;;;;;;;;4984051;28;20069;-82
2023/01/09 12:16:17;;;;;;;3.15;0.57;;;;;;;;;;4956425;28;20134;-82
2023/01/09 12:19:04;;;;;;;5.50;1.23;;;;;;;;;;4990360;28;20070;-81
2023/01/09 12:21:33;;;;;;;7.50;0.88;;;;;;;;;;4981257;28;20482;-81
2023/01/09 12:24:09;;;;;;;4.47;0.80;;;;;;;;;;4975245;28;20065;-82
2023/01/09 12:26:41;;;;;;;4.70;0.95;;;;;;;;;;4966997;28;20054;-82
2023/01/09 12:29:14;;;;;;;3.60;1.42;;;;;;;;;;4973165;28;20054;-84
2023/01/09 12:31:56;;;;;;;2.78;0.60;;;;;;;;;;4950877;28;20109;-83
2023/01/09 12:34:40;;;;;;;3.77;0.53;;;;;;;;;;4971519;28;20050;-83
2023/01/09 12:37:35;;;;;;;5.28;1.42;;;;;;;;;;4922825;28;1195790;-83
2023/01/09 12:40:14;;;;;;;3.20;0.60;;;;;;;;;;4974442;28;20043;-84
2023/01/09 12:43:00;;;;;;;3.65;0.88;;;;;;;;;;4997553;28;20058;-83
2023/01/09 12:46:04;;;;;;;3.05;0.80;;;;;;;;;;4977445;28;20050;-85
2023/01/09 12:48:55;;;;;;;2.15;0.70;;;;;;;;;;4979955;28;20057;-82
2023/01/09 12:51:42;;;;;;;4.88;0.65;;;;;;;;;;4971716;28;20112;-83
2023/01/09 12:55:02;;;;;;;4.47;0.63;;;;;;;;;;4964987;28;20057;-83
2023/01/09 12:57:52;;;;;;;4.68;1.00;;;;;;;;;;4982313;28;20054;-83
2023/01/09 13:00:22;;;;;;;7.35;0.80;;;;;;;;;;4971990;28;20054;-84
2023/01/09 13:02:58;;;;;;;3.42;0.55;;;;;;;;;;4982480;28;20483;-83
2023/01/09 13:05:52;;;;;;;3.03;1.10;;;;;;;;;;4995833;28;20573;-88
2023/01/09 13:08:37;;;;;;;8.38;1.40;;;;;;;;;;4980533;28;20058;-85
2023/01/09 13:11:05;;;;;;;6.10;1.02;;;;;;;;;;4962515;28;20058;-82
2023/01/09 13:14:05;;;;;;;1.70;0.70;;;;;;;;;;4991578;28;20598;-82
2023/01/09 13:16:40;;;;;;;3.25;0.50;;;;;;;;;;4968363;28;20046;-82
2023/01/09 13:19:13;;;;;;;5.00;0.90;;;;;;;;;;4977342;28;20057;-82
2023/01/09 13:21:40;;;;;;;6.20;1.23;;;;;;;;;;4989260;28;20073;-82
2023/01/09 13:24:19;;;;;;;2.50;0.82;;;;;;;;;;4975976;28;20087;-82
2023/01/09 13:26:54;;;;;;;4.65;1.05;;;;;;;;;;4965637;28;20054;-82
2023/01/09 13:29:29;;;;;;;4.55;2.00;;;;;;;;;;4965387;28;20062;-81
2023/01/09 13:32:21;;;;;;;2.08;1.10;;;;;;;;;;4977530;28;20058;-81
2023/01/09 13:34:50;;;;;;;3.70;0.88;;;;;;;;;;4993000;28;20058;-81
2023/01/09 13:37:26;;;;;;;2.58;0.70;;;;;;;;;;4961926;28;20133;-81
2023/01/09 13:40:04;;;;;;;1.38;0.70;;;;;;;;;;4991542;28;20054;-81
2023/01/09 13:42:35;;;;;;;1.92;0.60;;;;;;;;;;4968857;28;20137;-81
2023/01/09 13:45:10;;;;;;;2.45;0.55;;;;;;;;;;4970085;28;20388;-84
2023/01/09 13:47:39;;;;;;;1.35;0.70;;;;;;;;;;4976853;28;20133;-79
2023/01/09 13:50:07;;;;;;;4.25;0.85;;;;;;;;;;4960498;28;20219;-89
2023/01/09 13:52:41;;;;;;;2.35;1.20;;;;;;;;;;4987044;28;20064;-87
2023/01/09 13:55:25;;;;;;;2.95;1.20;;;;;;;;;;4971934;28;20293;-88
2023/01/09 13:58:13;;;;;;;5.25;1.50;;;;;;;;;;4961732;28;20564;-87
2023/01/09 14:00:40;;;;;;;1.33;0.90;;;;;;;;;;4985579;28;20073;-88
2023/01/09 14:03:35;;;;;;;2.10;0.60;;;;;;;;;;4992069;28;20054;-89
2023/01/09 14:06:14;;;;;;;4.97;1.70;;;;;;;;;;4983260;28;20080;-89
2023/01/09 14:08:41;;;;;;;4.97;1.55;;;;;;;;;;4959681;28;20045;-86
2023/01/09 14:11:08;;;;;;;3.50;1.83;;;;;;;;;;4977217;28;20267;-87
2023/01/09 14:13:38;;;;;;;1.92;1.17;;;;;;;;;;4954276;28;20100;-87
2023/01/09 14:16:22;;;;;;;3.28;1.13;;;;;;;;;;4956549;28;20458;-87
2023/01/09 14:18:50;;;;;;;;;;;;;;;;;;4974583;28;20065;-87
2023/01/09 14:21:48;;;;;;;2.28;1.10;;;;;;;;;;4968085;28;19929;-89
2023/01/09 14:24:21;;;;;;;3.45;1.75;;;;;;;;;;4979436;28;20062;-87
2023/01/09 14:26:55;;;;;;;2.72;0.98;;;;;;;;;;4971837;28;20058;-85
2023/01/09 14:29:35;;;;;;;6.45;0.93;;;;;;;;;;4998935;28;20051;-88
2023/01/09 14:32:32;;;;;;;2.97;1.08;;;;;;;;;;4985008;28;20055;-87
2023/01/09 14:35:02;;;;;;;2.65;1.42;;;;;;;;;;4991513;28;20072;-84
2023/01/09 14:37:29;;;;;;;1.67;0.63;;;;;;;;;;4977698;28;20057;-85
2023/01/09 14:39:56;;;;;;;1.63;0.50;;;;;;;;;;4988271;28;20417;-88
2023/01/09 14:42:26;;;;;;;1.65;0.60;;;;;;;;;;4968465;28;20053;-86
2023/01/09 14:44:59;;;;;;;2.03;1.00;;;;;;;;;;4983579;28;20053;-86
2023/01/09 14:47:47;;;;;;;4.28;1.90;;;;;;;;;;4978574;28;20054;-86
2023/01/09 14:50:20;;;;;;;1.13;0.90;;;;;;;;;;4978094;28;20053;-87
2023/01/09 14:52:51;;;;;;;1.55;1.00;;;;;;;;;;4983037;28;20083;-86
2023/01/09 14:55:44;;;;;;;3.22;1.65;;;;;;;;;;4985203;28;20062;-87
2023/01/09 14:58:15;;;;;;;2.78;1.95;;;;;;;;;;4971234;28;20062;-86
2023/01/09 15:00:57;;;;;;;3.75;1.70;;;;;;;;;;4983071;28;20054;-85
2023/01/09 15:03:25;;;;;;;2.88;0.80;;;;;;;;;;4969192;28;20054;-85
2023/01/09 15:05:51;;;;;;;3.08;1.00;;;;;;;;;;4985821;28;20042;-86
2023/01/09 15:08:24;;;;;;;4.47;1.92;;;;;;;;;;4959863;28;20050;-87
2023/01/09 15:10:52;;;;;;;3.75;1.60;;;;;;;;;;4959619;28;20054;-86
2023/01/09 15:13:32;;;;;;;2.08;0.70;;;;;;;;;;4972484;28;20060;-86
2023/01/09 15:15:59;;;;;;;3.03;0.80;;;;;;;;;;4968203;28;20061;-85
2023/01/09 15:18:29;;;;;;;2.45;1.17;;;;;;;;;;4972149;28;20051;-85
2023/01/09 15:21:00;;;;;;;3.03;1.40;;;;;;;;;;4960683;28;20059;-83
2023/01/09 15:23:29;;;;;;;5.82;1.10;;;;;;;;;;4960492;28;20054;-85
2023/01/09 15:26:13;;;;;;;2.72;1.17;;;;;;;;;;4976769;28;20097;-85
2023/01/09 15:28:42;;;;;;;2.40;0.57;;;;;;;;;;4975400;28;20470;-86
2023/01/09 15:31:16;;;;;;;1.98;0.30;;;;;;;;;;4979321;28;20149;-84
2023/01/09 15:33:44;;;;;;;1.95;0.70;;;;;;;;;;4978149;28;20525;-85
2023/01/09 15:36:31;;;;;;;0.95;0.40;;;;;;;;;;4986494;28;20053;-84
2023/01/09 15:38:59;;;;;;;3.08;0.50;;;;;;;;;;4975630;28;20065;-85
2023/01/09 15:44:16;;;;;;;3.45;1.27;;;;;;;;;;4977860;28;20050;-85
2023/01/09 15:46:45;;;;;;;2.50;1.00;;;;;;;;;;4983945;28;20086;-81
2023/01/09 15:49:12;;;;;;;3.85;1.38;;;;;;;;;;4985378;28;20132;-90
2023/01/09 15:51:41;;;;;;;2.13;0.50;;;;;;;;;;4985627;28;20532;-86
2023/01/09 15:54:15;;;;;;;2.25;0.60;;;;;;;;;;4961624;28;20054;-87
2023/01/09 15:56:45;;;;;;;2.35;0.98;;;;;;;;;;4970140;28;20269;-87
2023/01/09 15:59:26;;;;;;;2.95;0.57;;;;;;;;;;4966619;28;20509;-88
2023/01/09 16:04:46;;;;;;;4.20;0.82;;;;;;;;;;4992468;28;20054;-89
2023/01/09 16:07:14;;;;;;;2.55;1.17;;;;;;;;;;5026360;23;20103;-88
2023/01/09 16:09:51;;;;;;;3.17;1.90;;;;;;;;;;4901785;28;20048;-87
2023/01/09 16:12:26;;;;;;;5.30;3.30;;;;;;;;;;4910709;28;20039;-88
2023/01/09 16:14:58;;;;;;;6.55;3.33;;;;;;;;;;5004609;28;20050;-88
2023/01/09 16:17:25;;;;;;;9.85;3.33;;;;;;;;;;5013362;28;20037;-87
2023/01/09 16:20:21;;;;;;;3.50;1.90;;;;;;;;;;4999707;28;21181;-90
2023/01/09 16:22:53;;;;;;;3.92;2.60;;;;;;;;;;5001852;28;20077;-87
2023/01/09 16:25:36;;;;;;;9.23;6.18;;;;;;;;;;4986911;28;20081;-86
2023/01/09 16:28:25;;;;;;;6.55;5.00;;;;;;;;;;4955191;28;20057;-87